createdAt,value
2018-08-31T00:02:20.931Z,27.23
2018-08-31T00:05:06.415Z,25.63
2018-08-31T00:07:53.782Z,24.10
2018-08-31T00:12:37.990Z,24.63
2018-08-31T00:15:07.056Z,21.50
2018-08-31T00:17:36.870Z,21.23
2018-08-31T00:20:05.715Z,23.23
2018-08-31T00:22:34.433Z,27.23
2018-08-31T00:26:23.618Z,21.47
2018-08-31T00:29:48.238Z,21.10
2018-08-31T00:34:05.496Z,22.30
2018-08-31T00:39:53.483Z,23.53
2018-08-31T00:42:49.210Z,21.80
2018-08-31T00:45:33.696Z,22.77
2018-08-31T00:48:02.868Z,25.37
2018-08-31T00:50:31.975Z,22.03
2018-08-31T00:53:01.070Z,25.27
2018-08-31T00:55:29.847Z,25.53
2018-08-31T00:57:58.506Z,25.77
2018-08-31T01:00:27.209Z,27.03
2018-08-31T01:02:55.927Z,24.53
2018-08-31T01:05:24.665Z,23.57
2018-08-31T01:07:53.547Z,21.53
2018-08-31T01:10:23.398Z,21.50
2018-08-31T01:12:53.266Z,23.97
2018-08-31T01:15:21.853Z,20.87
2018-08-31T01:17:50.473Z,23.03
2018-08-31T01:20:19.236Z,19.27
2018-08-31T01:22:47.958Z,24.37
2018-08-31T01:25:16.615Z,20.73
2018-08-31T01:27:45.288Z,20.27
2018-08-31T01:30:13.884Z,21.93
2018-08-31T01:32:42.533Z,20.20
2018-08-31T01:35:11.205Z,21.53
2018-08-31T01:37:39.810Z,21.73
2018-08-31T01:40:08.541Z,20.20
2018-08-31T01:42:37.244Z,18.87
2018-08-31T01:45:06.086Z,21.90
2018-08-31T01:47:34.805Z,21.23
2018-08-31T01:50:03.578Z,22.93
2018-08-31T01:52:32.421Z,21.47
2018-08-31T01:55:01.161Z,24.33
2018-08-31T01:57:29.928Z,26.43
2018-08-31T01:59:58.713Z,24.03
2018-08-31T02:02:27.440Z,25.43
2018-08-31T02:04:56.228Z,22.43
2018-08-31T02:07:24.958Z,21.77
2018-08-31T02:09:53.758Z,26.13
2018-08-31T02:12:22.465Z,24.83
2018-08-31T02:14:51.408Z,40.63
2018-08-31T02:17:20.138Z,44.33
2018-08-31T02:19:48.938Z,52.47
2018-08-31T02:22:17.608Z,35.93
2018-08-31T02:24:46.238Z,33.57
2018-08-31T02:27:14.858Z,30.17
2018-08-31T02:29:43.528Z,47.27
2018-08-31T02:32:12.197Z,58.83
2018-08-31T02:34:40.796Z,59.97
2018-08-31T02:37:09.477Z,48.40
2018-08-31T02:39:38.171Z,43.97
2018-08-31T02:42:06.931Z,41.53
2018-08-31T02:44:35.659Z,30.60
2018-08-31T02:47:04.461Z,43.73
2018-08-31T02:49:33.206Z,42.40
2018-08-31T02:52:01.921Z,41.00
2018-08-31T02:54:30.677Z,29.00
2018-08-31T02:56:59.406Z,24.07
2018-08-31T02:59:28.069Z,27.73
2018-08-31T03:01:56.661Z,21.47
2018-08-31T03:04:25.384Z,22.03
2018-08-31T03:06:54.013Z,30.73
2018-08-31T03:09:22.658Z,40.83
2018-08-31T03:11:51.321Z,32.40
2018-08-31T03:14:19.933Z,25.73
2018-08-31T03:16:48.522Z,36.00
2018-08-31T03:19:17.153Z,47.57
2018-08-31T03:21:45.857Z,46.37
2018-08-31T03:24:14.614Z,44.23
2018-08-31T03:26:43.311Z,56.27
2018-08-31T03:29:12.071Z,52.07
2018-08-31T03:31:40.783Z,50.70
2018-08-31T03:34:09.543Z,45.53
2018-08-31T03:36:38.279Z,49.37
2018-08-31T03:39:09.336Z,38.00
2018-08-31T03:41:38.433Z,44.60
2018-08-31T03:44:07.133Z,43.87
2018-08-31T03:46:35.822Z,57.00
2018-08-31T03:49:04.573Z,58.30
2018-08-31T03:51:33.320Z,59.47
2018-08-31T03:54:02.155Z,63.00
2018-08-31T03:56:30.946Z,64.90
2018-08-31T03:58:59.725Z,61.10
2018-08-31T04:01:28.358Z,64.83
2018-08-31T04:03:56.985Z,59.37
2018-08-31T04:06:25.790Z,61.20
2018-08-31T04:08:54.380Z,57.87
2018-08-31T04:11:23.048Z,51.67
2018-08-31T04:13:51.801Z,53.53
2018-08-31T04:16:20.496Z,59.30
2018-08-31T04:18:49.222Z,48.37
2018-08-31T04:21:17.949Z,48.93
2018-08-31T04:23:46.635Z,46.13
2018-08-31T04:26:15.250Z,46.60
2018-08-31T04:28:43.880Z,43.97
2018-08-31T04:31:12.501Z,44.30
2018-08-31T04:33:41.178Z,44.87
2018-08-31T04:36:09.829Z,47.70
2018-08-31T04:38:38.529Z,44.07
2018-08-31T04:41:07.203Z,44.60
2018-08-31T04:43:35.969Z,46.63
2018-08-31T04:46:04.710Z,46.87
2018-08-31T04:48:33.478Z,45.83
2018-08-31T04:51:02.218Z,48.53
2018-08-31T04:53:31.800Z,41.37
2018-08-31T04:56:00.579Z,44.73
2018-08-31T04:58:29.196Z,43.47
2018-08-31T05:00:57.838Z,47.40
2018-08-31T05:03:26.569Z,42.67
2018-08-31T05:05:55.201Z,48.90
2018-08-31T05:08:23.831Z,46.50
2018-08-31T05:10:52.553Z,50.17
2018-08-31T05:13:21.348Z,46.43
2018-08-31T05:15:50.107Z,43.50
2018-08-31T05:18:18.896Z,44.57
2018-08-31T05:20:47.618Z,40.17
2018-08-31T05:23:16.378Z,41.90
2018-08-31T05:25:45.136Z,40.30
2018-08-31T05:28:13.962Z,39.87
2018-08-31T05:30:42.714Z,35.40
2018-08-31T05:33:12.126Z,33.70
2018-08-31T05:35:40.816Z,34.33
2018-08-31T05:38:09.416Z,34.67
2018-08-31T05:40:38.112Z,36.53
2018-08-31T05:43:06.828Z,34.67
2018-08-31T05:45:35.905Z,34.67
2018-08-31T05:48:04.652Z,34.37
2018-08-31T05:50:33.486Z,39.03
2018-08-31T05:53:02.250Z,35.87
2018-08-31T05:55:30.923Z,34.03
2018-08-31T05:57:59.576Z,34.53
2018-08-31T06:00:28.458Z,31.77
2018-08-31T06:02:57.109Z,30.03
2018-08-31T06:05:26.200Z,30.87
2018-08-31T06:07:55.014Z,28.03
2018-08-31T06:10:23.761Z,27.00
2018-08-31T06:12:52.521Z,29.03
2018-08-31T06:15:21.294Z,29.17
2018-08-31T06:17:50.036Z,27.33
2018-08-31T06:20:18.779Z,26.33
2018-08-31T06:22:47.553Z,25.23
2018-08-31T06:25:16.364Z,26.57
2018-08-31T06:27:45.251Z,23.30
2018-08-31T06:30:14.659Z,21.27
2018-08-31T06:32:43.340Z,22.50
2018-08-31T06:35:12.083Z,20.40
2018-08-31T06:37:40.936Z,20.53
2018-08-31T06:40:09.675Z,17.23
2018-08-31T06:42:38.467Z,17.67
2018-08-31T06:45:07.306Z,18.20
2018-08-31T06:47:36.042Z,16.53
2018-08-31T06:50:05.161Z,16.90
2018-08-31T06:52:33.979Z,16.00
2018-08-31T06:55:02.693Z,17.80
2018-08-31T06:57:31.457Z,16.85
2018-08-31T07:00:00.251Z,15.77
2018-08-31T07:02:29.025Z,17.83
2018-08-31T07:04:57.790Z,18.10
2018-08-31T07:07:26.475Z,19.00
2018-08-31T07:09:55.169Z,18.20
2018-08-31T07:12:23.939Z,15.93
2018-08-31T07:14:52.543Z,18.00
2018-08-31T07:17:21.222Z,16.00
2018-08-31T07:19:50.139Z,17.43
2018-08-31T07:22:19.011Z,18.25
2018-08-31T07:24:47.865Z,16.20
2018-08-31T07:27:16.525Z,19.13
2018-08-31T07:29:45.169Z,16.50
2018-08-31T07:32:14.002Z,18.12
2018-08-31T07:34:42.608Z,18.85
2018-08-31T07:37:11.316Z,16.53
2018-08-31T07:39:40.068Z,16.75
2018-08-31T07:42:08.759Z,16.77
2018-08-31T07:44:37.389Z,14.20
2018-08-31T07:47:06.098Z,13.53
2018-08-31T07:49:34.706Z,15.72
2018-08-31T07:52:03.331Z,15.72
2018-08-31T07:54:32.011Z,14.03
2018-08-31T07:57:00.623Z,16.02
2018-08-31T07:59:29.276Z,14.10
2018-08-31T08:01:58.004Z,14.65
2018-08-31T08:04:26.854Z,14.07
2018-08-31T08:06:55.539Z,14.28
2018-08-31T08:09:24.259Z,13.95
2018-08-31T08:11:53.005Z,13.60
2018-08-31T08:14:21.856Z,13.98
2018-08-31T08:16:50.664Z,14.63
2018-08-31T08:19:19.528Z,15.35
2018-08-31T08:21:48.373Z,15.68
2018-08-31T08:24:17.134Z,14.98
2018-08-31T08:26:45.784Z,13.43
2018-08-31T08:29:14.441Z,12.88
2018-08-31T08:31:43.056Z,13.75
2018-08-31T08:34:11.699Z,12.73
2018-08-31T08:36:40.495Z,10.35
2018-08-31T08:39:09.241Z,10.30
2018-08-31T08:41:38.009Z,10.08
2018-08-31T08:44:07.330Z,10.18
2018-08-31T08:46:35.962Z,11.22
2018-08-31T08:49:04.796Z,11.30
2018-08-31T08:51:34.335Z,12.03
2018-08-31T08:54:03.086Z,10.53
2018-08-31T08:56:32.876Z,10.00
2018-08-31T08:59:01.690Z,10.72
2018-08-31T09:01:30.419Z,10.75
2018-08-31T09:03:59.175Z,9.50
2018-08-31T09:06:27.873Z,10.18
2018-08-31T09:08:56.660Z,9.30
2018-08-31T09:11:25.373Z,13.75
2018-08-31T09:13:54.806Z,11.00
2018-08-31T09:16:23.626Z,9.63
2018-08-31T09:18:52.341Z,8.50
2018-08-31T09:21:21.104Z,11.12
2018-08-31T09:23:49.814Z,11.28
2018-08-31T09:26:18.679Z,10.63
2018-08-31T09:28:47.484Z,9.35
2018-08-31T09:31:17.500Z,9.88
2018-08-31T09:33:46.273Z,8.65
2018-08-31T09:36:15.076Z,10.75
2018-08-31T09:38:43.922Z,9.10
2018-08-31T09:41:12.791Z,10.20
2018-08-31T09:43:42.070Z,9.15
2018-08-31T09:46:10.751Z,9.58
2018-08-31T09:48:39.386Z,11.28
2018-08-31T09:51:07.998Z,10.40
2018-08-31T09:53:36.705Z,9.83
2018-08-31T09:56:05.580Z,9.20
2018-08-31T09:58:34.668Z,10.03
2018-08-31T10:01:09.100Z,10.72
2018-08-31T10:03:41.944Z,10.13
2018-08-31T10:06:10.755Z,11.60
2018-08-31T10:08:39.673Z,13.13
2018-08-31T10:11:08.426Z,9.70
2018-08-31T10:13:37.224Z,11.25
2018-08-31T10:16:06.198Z,8.35
2018-08-31T10:18:35.029Z,10.68
2018-08-31T10:21:03.763Z,9.60
2018-08-31T10:23:32.513Z,9.38
2018-08-31T10:26:01.271Z,10.15
2018-08-31T10:28:30.108Z,12.10
2018-08-31T10:30:58.953Z,9.28
2018-08-31T10:33:27.801Z,12.45
2018-08-31T10:35:56.531Z,10.18
2018-08-31T10:38:25.316Z,10.38
2018-08-31T10:40:54.131Z,10.05
2018-08-31T10:43:23.569Z,11.43
2018-08-31T10:45:52.428Z,9.78
2018-08-31T10:48:22.434Z,10.95
2018-08-31T10:50:51.298Z,9.93
2018-08-31T10:53:20.296Z,10.55
2018-08-31T10:55:49.053Z,15.32
2018-08-31T10:58:17.844Z,9.08
2018-08-31T11:00:46.623Z,8.80
2018-08-31T11:03:15.496Z,11.10
2018-08-31T11:05:44.323Z,10.10
2018-08-31T11:08:13.196Z,13.50
2018-08-31T11:10:41.983Z,12.95
2018-08-31T11:13:10.842Z,14.65
2018-08-31T11:15:39.551Z,13.35
2018-08-31T11:18:08.323Z,16.97
2018-08-31T11:20:37.106Z,16.48
2018-08-31T11:23:06.498Z,16.17
2018-08-31T11:25:35.403Z,15.38
2018-08-31T11:28:04.178Z,13.70
2018-08-31T11:30:33.851Z,15.45
2018-08-31T11:33:02.663Z,16.23
2018-08-31T11:35:31.402Z,14.15
2018-08-31T11:38:01.037Z,14.05
2018-08-31T11:40:29.773Z,11.15
2018-08-31T11:42:58.496Z,10.45
2018-08-31T11:45:27.268Z,14.30
2018-08-31T11:47:56.924Z,10.75
2018-08-31T11:50:26.183Z,14.38
2018-08-31T11:52:55.096Z,13.38
2018-08-31T11:55:23.964Z,13.80
2018-08-31T11:57:53.366Z,13.62
2018-08-31T12:00:22.141Z,13.55
2018-08-31T12:02:50.783Z,17.15
2018-08-31T12:05:20.416Z,14.47
2018-08-31T12:07:49.144Z,14.58
2018-08-31T12:10:18.199Z,16.20
2018-08-31T12:12:47.036Z,18.23
2018-08-31T12:15:16.239Z,18.77
2018-08-31T12:17:45.059Z,16.60
2018-08-31T12:20:13.949Z,16.20
2018-08-31T12:22:42.856Z,16.40
2018-08-31T12:25:11.586Z,17.75
2018-08-31T12:27:43.874Z,16.85
2018-08-31T12:30:13.170Z,18.00
2018-08-31T12:32:42.174Z,15.23
2018-08-31T12:35:11.216Z,16.65
2018-08-31T12:37:40.197Z,16.75
2018-08-31T12:40:10.052Z,15.68
2018-08-31T12:42:38.891Z,17.77
2018-08-31T12:45:07.841Z,14.78
2018-08-31T12:47:36.671Z,14.93
2018-08-31T12:50:05.383Z,16.85
2018-08-31T12:52:34.096Z,15.38
2018-08-31T12:55:02.991Z,15.38
2018-08-31T12:57:31.656Z,17.27
2018-08-31T13:00:01.156Z,15.32
2018-08-31T13:02:31.283Z,14.55
2018-08-31T13:05:00.811Z,16.20
2018-08-31T13:07:29.567Z,16.12
2018-08-31T13:09:58.316Z,14.73
2018-08-31T13:12:27.432Z,14.15
2018-08-31T13:14:56.292Z,16.37
2018-08-31T13:17:25.219Z,13.45
2018-08-31T13:19:54.040Z,17.27
2018-08-31T13:22:22.687Z,15.18
2018-08-31T13:24:51.556Z,16.20
2018-08-31T13:27:20.862Z,13.70
2018-08-31T13:29:49.607Z,15.32
2018-08-31T13:32:18.379Z,15.45
2018-08-31T13:34:47.099Z,13.05
2018-08-31T13:37:15.919Z,14.28
2018-08-31T13:39:44.669Z,14.23
2018-08-31T13:42:13.509Z,14.98
2018-08-31T13:44:42.290Z,15.70
2018-08-31T13:47:11.124Z,14.28
2018-08-31T13:49:39.976Z,13.43
2018-08-31T13:52:08.761Z,15.43
2018-08-31T13:54:38.039Z,13.10
2018-08-31T13:57:07.017Z,17.82
2018-08-31T13:59:35.740Z,16.48
2018-08-31T14:02:04.805Z,16.30
2018-08-31T14:04:33.723Z,12.53
2018-08-31T14:07:02.405Z,15.75
2018-08-31T14:09:31.152Z,17.10
2018-08-31T14:12:01.564Z,15.78
2018-08-31T14:14:30.234Z,13.10
2018-08-31T14:16:58.931Z,13.43
2018-08-31T14:19:27.591Z,13.15
2018-08-31T14:21:56.318Z,14.15
2018-08-31T14:24:25.054Z,15.30
2018-08-31T14:26:53.785Z,14.35
2018-08-31T14:29:23.273Z,15.53
2018-08-31T14:31:52.367Z,14.33
2018-08-31T14:34:21.131Z,12.68
2018-08-31T14:36:50.061Z,15.18
2018-08-31T14:39:18.866Z,16.37
2018-08-31T14:41:47.501Z,14.80
2018-08-31T14:44:16.199Z,15.18
2018-08-31T14:46:44.913Z,15.28
2018-08-31T14:49:14.186Z,13.15
2018-08-31T14:51:43.049Z,12.05
2018-08-31T14:54:11.817Z,13.65
2018-08-31T14:56:40.637Z,15.00
2018-08-31T14:59:09.384Z,15.60
2018-08-31T15:01:38.225Z,14.20
2018-08-31T15:04:09.783Z,14.98
2018-08-31T15:06:38.426Z,14.98
2018-08-31T15:09:09.058Z,17.60
2018-08-31T15:11:37.834Z,14.68
2018-08-31T15:14:06.591Z,17.20
2018-08-31T15:16:35.370Z,16.37
2018-08-31T15:19:04.311Z,14.03
2018-08-31T15:21:33.116Z,19.98
2018-08-31T15:24:01.854Z,17.23
2018-08-31T15:26:30.479Z,17.02
2018-08-31T15:28:59.278Z,15.88
2018-08-31T15:31:28.130Z,17.73
2018-08-31T15:33:56.765Z,14.10
2018-08-31T15:36:25.406Z,14.25
2018-08-31T15:38:54.166Z,16.25
2018-08-31T15:41:22.863Z,17.70
2018-08-31T15:43:51.708Z,17.42
2018-08-31T15:46:21.133Z,14.60
2018-08-31T15:48:50.036Z,18.82
2018-08-31T15:51:18.848Z,17.48
2018-08-31T15:53:47.596Z,16.65
2018-08-31T15:56:17.024Z,21.55
2018-08-31T15:58:45.871Z,19.62
2018-08-31T16:01:14.658Z,21.93
2018-08-31T16:03:43.386Z,21.42
2018-08-31T16:06:12.157Z,17.48
2018-08-31T16:08:40.879Z,16.60
2018-08-31T16:11:09.549Z,18.98
2018-08-31T16:13:38.361Z,17.40
2018-08-31T16:16:07.366Z,21.37
2018-08-31T16:18:36.300Z,17.57
2018-08-31T16:21:05.112Z,14.68
2018-08-31T16:23:33.963Z,18.23
2018-08-31T16:26:02.756Z,18.90
2018-08-31T16:28:31.506Z,20.52
2018-08-31T16:31:00.352Z,18.62
2018-08-31T16:33:29.088Z,16.95
2018-08-31T16:35:57.771Z,14.15
2018-08-31T16:38:26.441Z,20.57
2018-08-31T16:40:55.126Z,18.20
2018-08-31T16:43:23.911Z,20.60
2018-08-31T16:45:52.821Z,18.55
2018-08-31T16:48:21.567Z,17.65
2018-08-31T16:50:50.891Z,19.75
2018-08-31T16:53:19.641Z,15.90
2018-08-31T16:55:48.411Z,20.12
2018-08-31T16:58:17.269Z,19.75
2018-08-31T17:00:46.486Z,15.88
2018-08-31T17:03:15.287Z,18.70
2018-08-31T17:05:44.076Z,20.72
2018-08-31T17:08:12.754Z,20.72
2018-08-31T17:10:41.419Z,22.50
2018-08-31T17:13:10.168Z,20.62
2018-08-31T17:15:39.091Z,19.30
2018-08-31T17:18:07.863Z,17.95
2018-08-31T17:20:36.639Z,18.07
2018-08-31T17:23:05.463Z,17.55
2018-08-31T17:25:34.286Z,21.37
2018-08-31T17:28:08.732Z,23.70
2018-08-31T17:30:37.614Z,26.55
2018-08-31T17:33:12.133Z,21.12
2018-08-31T17:35:46.361Z,22.90
2018-08-31T17:38:15.077Z,19.83
2018-08-31T17:40:43.758Z,21.68
2018-08-31T17:43:12.554Z,22.10
2018-08-31T17:45:41.358Z,21.73
2018-08-31T17:48:10.111Z,20.10
2018-08-31T17:50:38.856Z,19.70
2018-08-31T17:53:07.571Z,18.97
2018-08-31T17:55:36.347Z,20.80
2018-08-31T17:58:05.961Z,23.00
2018-08-31T18:00:34.746Z,21.50
2018-08-31T18:03:03.548Z,21.00
2018-08-31T18:05:32.255Z,19.63
2018-08-31T18:08:00.998Z,22.20
2018-08-31T18:10:29.766Z,22.93
2018-08-31T18:12:58.481Z,19.27
2018-08-31T18:15:27.879Z,21.73
2018-08-31T18:17:56.788Z,21.60
2018-08-31T18:20:25.698Z,26.17
2018-08-31T18:22:54.563Z,20.10
2018-08-31T18:25:24.123Z,25.73
2018-08-31T18:27:52.943Z,20.67
2018-08-31T18:30:21.743Z,22.63
2018-08-31T18:32:51.263Z,23.07
2018-08-31T18:35:20.516Z,19.87
2018-08-31T18:37:49.331Z,22.10
2018-08-31T18:40:18.127Z,27.73
2018-08-31T18:42:47.095Z,21.03
2018-08-31T18:45:16.753Z,24.50
2018-08-31T18:47:45.446Z,21.53
2018-08-31T18:50:14.161Z,22.40
2018-08-31T18:52:42.972Z,24.03
2018-08-31T18:55:11.732Z,22.67
2018-08-31T18:57:40.402Z,20.50
2018-08-31T19:00:09.176Z,23.73
2018-08-31T19:02:37.863Z,21.53
2018-08-31T19:05:06.607Z,24.87
2018-08-31T19:07:35.385Z,21.20
2018-08-31T19:10:04.229Z,21.03
2018-08-31T19:12:33.729Z,19.13
2018-08-31T19:15:02.484Z,21.30
2018-08-31T19:17:31.724Z,27.93
2018-08-31T19:20:01.515Z,22.37
2018-08-31T19:22:30.461Z,21.03
2018-08-31T19:24:59.201Z,24.80
2018-08-31T19:27:27.896Z,22.50
2018-08-31T19:29:56.619Z,28.67
2018-08-31T19:32:25.478Z,24.00
2018-08-31T19:34:55.632Z,19.40
2018-08-31T19:37:24.444Z,21.50
2018-08-31T19:39:53.423Z,25.93
2018-08-31T19:42:22.086Z,23.57
2018-08-31T19:44:51.998Z,28.53
2018-08-31T19:47:20.723Z,18.77
2018-08-31T19:49:49.960Z,18.97
2018-08-31T19:52:18.632Z,19.80
2018-08-31T19:54:48.801Z,21.93
2018-08-31T19:57:17.561Z,19.67
2018-08-31T19:59:46.244Z,21.87
2018-08-31T20:02:15.529Z,25.70
2018-08-31T20:04:44.301Z,22.47
2018-08-31T20:07:13.529Z,24.40
2018-08-31T20:09:42.346Z,23.97
2018-08-31T20:12:11.720Z,26.03
2018-08-31T20:14:41.134Z,20.77
2018-08-31T20:17:10.251Z,21.33
2018-08-31T20:19:39.097Z,21.97
2018-08-31T20:22:11.064Z,25.17
2018-08-31T20:24:40.050Z,22.37
2018-08-31T20:27:09.347Z,22.43
2018-08-31T20:29:38.152Z,24.83
2018-08-31T20:32:08.411Z,21.23
2018-08-31T20:34:37.292Z,26.23
2018-08-31T20:37:06.252Z,21.47
2018-08-31T20:39:35.084Z,19.70
2018-08-31T20:42:03.980Z,18.67
2018-08-31T20:44:32.966Z,25.47
2018-08-31T20:47:02.346Z,20.43
2018-08-31T20:49:31.514Z,21.00
2018-08-31T20:52:00.407Z,21.30
2018-08-31T20:54:29.068Z,19.10
2018-08-31T20:56:57.871Z,19.90
2018-08-31T20:59:27.684Z,22.83
2018-08-31T21:01:58.534Z,21.57
2018-08-31T21:04:28.039Z,20.50
2018-08-31T21:06:56.892Z,22.50
2018-08-31T21:09:25.572Z,24.43
2018-08-31T21:11:54.264Z,21.80
2018-08-31T21:14:23.183Z,18.17
2018-08-31T21:16:51.906Z,20.10
2018-08-31T21:19:20.649Z,21.07
2018-08-31T21:21:49.487Z,22.90
2018-08-31T21:24:18.847Z,29.23
2018-08-31T21:26:48.020Z,21.03
2018-08-31T21:29:16.679Z,25.17
2018-08-31T21:31:45.404Z,20.87
2018-08-31T21:34:14.191Z,24.80
2018-08-31T21:36:42.888Z,19.63
2018-08-31T21:39:11.679Z,21.93
2018-08-31T21:41:40.450Z,24.27
2018-08-31T21:44:09.306Z,23.23
2018-08-31T21:46:38.079Z,21.67
2018-08-31T21:49:06.780Z,22.43
2018-08-31T21:51:35.811Z,20.83
2018-08-31T21:54:04.503Z,21.47
2018-08-31T21:56:33.271Z,25.27
2018-08-31T21:59:02.033Z,21.10
2018-08-31T22:01:36.266Z,18.90
2018-08-31T22:04:05.312Z,23.53
2018-08-31T22:06:35.273Z,20.57
2018-08-31T22:09:05.856Z,24.67
2018-08-31T22:11:34.689Z,21.80
2018-08-31T22:14:03.487Z,25.00
2018-08-31T22:16:32.366Z,22.77
2018-08-31T22:19:01.163Z,18.60
2018-08-31T22:21:29.966Z,19.67
2018-08-31T22:23:58.728Z,22.67
2018-08-31T22:26:27.460Z,25.63
2018-08-31T22:28:56.279Z,21.80
2018-08-31T22:31:24.956Z,22.80
2018-08-31T22:33:53.661Z,20.30
2018-08-31T22:36:22.295Z,21.17
2018-08-31T22:38:51.040Z,19.33
2018-08-31T22:41:19.745Z,20.20
2018-08-31T22:43:49.790Z,17.33
2018-08-31T22:46:20.523Z,18.27
2018-08-31T22:48:50.158Z,17.77
2018-08-31T22:51:19.675Z,18.90
2018-08-31T22:53:48.723Z,20.60
2018-08-31T22:56:17.516Z,22.00
2018-08-31T22:58:46.184Z,17.83
2018-08-31T23:01:15.103Z,20.17
2018-08-31T23:03:44.068Z,22.00
2018-08-31T23:06:12.935Z,22.63
2018-08-31T23:08:41.577Z,23.37
2018-08-31T23:11:11.407Z,19.73
2018-08-31T23:13:42.348Z,20.17
2018-08-31T23:16:11.106Z,17.97
2018-08-31T23:18:39.991Z,22.70
2018-08-31T23:21:09.303Z,21.30
2018-08-31T23:23:43.398Z,18.50
2018-08-31T23:26:12.044Z,22.07
2018-08-31T23:28:40.849Z,16.57
2018-08-31T23:31:09.579Z,19.30
2018-08-31T23:33:38.238Z,17.27
2018-08-31T23:36:06.898Z,20.03
2018-08-31T23:38:36.019Z,17.70
2018-08-31T23:41:04.836Z,20.27
2018-08-31T23:43:33.568Z,20.23
2018-08-31T23:46:03.207Z,20.77
2018-08-31T23:48:31.934Z,19.50
2018-08-31T23:51:00.696Z,22.60
2018-08-31T23:53:29.456Z,19.93
2018-08-31T23:55:59.041Z,20.67
2018-08-31T23:58:27.908Z,20.53
